createdAt,value
2022-10-02T00:01:11.487Z,13.00
2022-10-02T00:03:42.797Z,11.20
2022-10-02T00:06:20.494Z,12.10
2022-10-02T00:08:53.573Z,10.70
2022-10-02T00:11:27.124Z,9.50
2022-10-02T00:14:04.261Z,11.10
2022-10-02T00:16:34.630Z,12.30
2022-10-02T00:19:04.123Z,10.90
2022-10-02T00:21:53.978Z,11.10
2022-10-02T00:24:37.420Z,9.10
2022-10-02T00:29:56.383Z,10.30
2022-10-02T00:32:45.971Z,10.00
2022-10-02T00:35:31.029Z,10.90
2022-10-02T00:38:10.768Z,10.30
2022-10-02T00:40:44.792Z,10.20
2022-10-02T00:43:33.547Z,9.80
2022-10-02T00:46:38.807Z,9.00
2022-10-02T00:49:39.119Z,12.90
2022-10-02T00:52:36.982Z,15.90
2022-10-02T00:55:16.685Z,11.70
2022-10-02T00:58:02.934Z,8.60
2022-10-02T01:00:31.920Z,8.40
2022-10-02T01:03:16.886Z,8.80
2022-10-02T01:05:45.599Z,9.60
2022-10-02T01:08:14.396Z,9.60
2022-10-02T01:10:43.058Z,10.20
2022-10-02T01:13:11.018Z,9.30
2022-10-02T01:15:44.625Z,9.80
2022-10-02T01:18:15.147Z,10.40
2022-10-02T01:20:49.064Z,9.50
2022-10-02T01:23:35.464Z,8.70
2022-10-02T01:26:04.047Z,8.20
2022-10-02T01:28:32.298Z,8.70
2022-10-02T01:31:10.586Z,8.70
2022-10-02T01:33:41.757Z,9.00
2022-10-02T01:36:11.287Z,8.80
2022-10-02T01:38:41.655Z,9.20
2022-10-02T01:41:11.626Z,9.00
2022-10-02T01:43:53.734Z,9.00
2022-10-02T01:46:21.906Z,8.60
2022-10-02T01:49:18.461Z,8.90
2022-10-02T01:51:52.454Z,9.60
2022-10-02T01:54:57.994Z,8.30
2022-10-02T01:57:53.313Z,10.10
2022-10-02T02:00:25.278Z,8.60
2022-10-02T02:03:39.535Z,8.90
2022-10-02T02:06:15.171Z,9.20
2022-10-02T02:09:06.590Z,8.50
2022-10-02T02:11:40.014Z,7.70
2022-10-02T02:16:52.243Z,8.70
2022-10-02T02:19:31.337Z,8.20
2022-10-02T02:22:12.318Z,8.70
2022-10-02T02:25:21.579Z,7.80
2022-10-02T02:28:00.874Z,8.00
2022-10-02T02:30:31.935Z,7.90
2022-10-02T02:33:06.244Z,8.80
2022-10-02T02:35:39.563Z,8.60
2022-10-02T02:38:14.911Z,9.00
2022-10-02T02:40:45.939Z,8.50
2022-10-02T02:43:20.222Z,8.60
2022-10-02T02:45:55.859Z,8.90
2022-10-02T02:48:51.418Z,8.70
2022-10-02T02:51:26.675Z,9.80
2022-10-02T02:54:08.278Z,11.20
2022-10-02T02:56:37.374Z,9.30
2022-10-02T02:59:10.691Z,11.70
2022-10-02T03:01:38.809Z,8.00
2022-10-02T03:04:07.298Z,7.30
2022-10-02T03:06:42.012Z,7.80
2022-10-02T03:09:19.511Z,9.30
2022-10-02T03:12:00.783Z,7.80
2022-10-02T03:14:43.598Z,8.30
2022-10-02T03:17:40.968Z,7.50
2022-10-02T03:20:19.698Z,7.80
2022-10-02T03:23:26.277Z,7.90
2022-10-02T03:26:00.779Z,7.90
2022-10-02T03:28:57.208Z,7.60
2022-10-02T03:31:29.918Z,10.60
2022-10-02T03:34:00.827Z,7.40
2022-10-02T03:36:29.695Z,8.10
2022-10-02T03:41:50.642Z,7.30
2022-10-02T03:44:18.721Z,8.20
2022-10-02T03:46:46.854Z,7.70
2022-10-02T03:49:14.969Z,7.20
2022-10-02T03:51:43.031Z,8.90
2022-10-02T03:54:20.026Z,8.20
2022-10-02T03:56:57.015Z,8.10
2022-10-02T03:59:43.810Z,7.30
2022-10-02T04:02:21.405Z,7.00
2022-10-02T04:05:21.260Z,9.30
2022-10-02T04:07:53.620Z,6.90
2022-10-02T04:10:40.503Z,7.10
2022-10-02T04:13:17.073Z,6.80
2022-10-02T04:16:04.027Z,6.30
2022-10-02T04:18:40.030Z,7.10
2022-10-02T04:21:43.659Z,7.20
2022-10-02T04:24:45.837Z,7.90
2022-10-02T04:27:32.335Z,7.30
2022-10-02T04:30:04.606Z,7.80
2022-10-02T04:32:37.155Z,8.80
2022-10-02T04:35:17.437Z,7.30
2022-10-02T04:37:51.100Z,7.60
2022-10-02T04:40:50.753Z,6.30
2022-10-02T04:43:55.988Z,7.60
2022-10-02T04:46:29.697Z,7.30
2022-10-02T04:49:34.325Z,6.60
2022-10-02T04:52:21.136Z,6.60
2022-10-02T04:55:21.251Z,6.50
2022-10-02T04:58:08.686Z,8.40
2022-10-02T05:00:47.870Z,6.40
2022-10-02T05:03:25.341Z,6.80
2022-10-02T05:06:17.447Z,7.60
2022-10-02T05:08:51.346Z,7.10
2022-10-02T05:11:35.297Z,8.00
2022-10-02T05:14:09.308Z,7.40
2022-10-02T05:17:06.895Z,9.00
2022-10-02T05:19:50.302Z,7.10
2022-10-02T05:22:36.910Z,9.90
2022-10-02T05:25:29.659Z,8.70
2022-10-02T05:28:44.726Z,7.90
2022-10-02T05:31:33.675Z,7.30
2022-10-02T05:34:19.679Z,7.30
2022-10-02T05:36:47.556Z,9.20
2022-10-02T05:39:27.835Z,11.00
2022-10-02T05:41:55.997Z,9.50
2022-10-02T05:44:38.672Z,9.70
2022-10-02T05:47:09.891Z,12.20
2022-10-02T05:49:44.802Z,10.70
2022-10-02T05:52:26.365Z,12.30
2022-10-02T05:55:00.601Z,10.10
2022-10-02T05:58:02.335Z,20.20
2022-10-02T06:00:47.154Z,13.60
2022-10-02T06:03:26.853Z,10.40
2022-10-02T06:06:07.739Z,9.30
2022-10-02T06:08:46.556Z,19.70
2022-10-02T06:11:28.343Z,18.30
2022-10-02T06:14:14.480Z,10.00
2022-10-02T06:17:04.626Z,13.10
2022-10-02T06:19:39.208Z,9.30
2022-10-02T06:22:19.513Z,12.20
2022-10-02T06:24:55.672Z,14.70
2022-10-02T06:27:47.179Z,11.90
2022-10-02T06:30:22.682Z,8.90
2022-10-02T06:33:15.586Z,15.30
2022-10-02T06:35:46.686Z,13.70
2022-10-02T06:38:39.998Z,9.40
2022-10-02T06:41:25.164Z,8.50
2022-10-02T06:44:30.099Z,15.90
2022-10-02T06:47:24.247Z,14.20
2022-10-02T06:50:29.299Z,12.50
2022-10-02T06:53:09.286Z,8.80
2022-10-02T06:56:01.347Z,6.70
2022-10-02T06:58:47.371Z,12.20
2022-10-02T07:01:27.322Z,6.70
2022-10-02T07:03:57.988Z,14.40
2022-10-02T07:06:26.266Z,8.90
2022-10-02T07:09:11.620Z,7.40
2022-10-02T07:12:05.643Z,8.90
2022-10-02T07:15:18.162Z,7.90
2022-10-02T07:17:55.526Z,14.20
2022-10-02T07:20:34.523Z,10.70
2022-10-02T07:23:10.206Z,29.50
2022-10-02T07:26:06.132Z,7.20
2022-10-02T07:28:55.729Z,11.30
2022-10-02T07:31:42.843Z,9.50
2022-10-02T07:34:46.961Z,13.10
2022-10-02T07:37:35.802Z,14.40
2022-10-02T07:40:10.937Z,12.10
2022-10-02T07:42:42.081Z,11.90
2022-10-02T07:45:16.025Z,13.50
2022-10-02T07:48:21.540Z,9.70
2022-10-02T07:51:32.912Z,13.20
2022-10-02T07:54:24.959Z,8.50
2022-10-02T07:56:58.345Z,9.00
2022-10-02T08:01:56.578Z,17.00
2022-10-02T08:04:37.146Z,14.60
2022-10-02T08:07:07.122Z,14.30
2022-10-02T08:09:44.007Z,13.00
2022-10-02T08:12:17.805Z,14.10
2022-10-02T08:14:47.014Z,13.00
2022-10-02T08:17:42.720Z,12.40
2022-10-02T08:20:40.402Z,10.50
2022-10-02T08:23:49.939Z,11.70
2022-10-02T08:26:18.012Z,22.20
2022-10-02T08:29:01.746Z,43.40
2022-10-02T08:31:30.171Z,35.50
2022-10-02T08:34:01.010Z,54.60
2022-10-02T08:36:59.661Z,53.90
2022-10-02T08:40:05.007Z,45.70
2022-10-02T08:43:08.613Z,51.60
2022-10-02T08:46:02.628Z,77.80
2022-10-02T08:48:55.958Z,52.40
2022-10-02T08:51:57.930Z,46.80
2022-10-02T08:54:51.508Z,42.50
2022-10-02T08:57:32.557Z,42.10
2022-10-02T09:00:24.605Z,36.70
2022-10-02T09:03:13.864Z,33.90
2022-10-02T09:05:56.804Z,32.80
2022-10-02T09:09:01.408Z,32.40
2022-10-02T09:11:47.411Z,35.90
2022-10-02T09:14:46.306Z,27.80
2022-10-02T09:17:31.204Z,25.60
2022-10-02T09:20:05.221Z,31.00
2022-10-02T09:22:48.215Z,26.10
2022-10-02T09:25:28.570Z,22.80
2022-10-02T09:28:05.534Z,29.20
2022-10-02T09:31:10.140Z,25.30
2022-10-02T09:33:56.292Z,23.10
2022-10-02T09:36:51.272Z,18.30
2022-10-02T09:39:57.540Z,21.60
2022-10-02T09:42:25.814Z,25.20
2022-10-02T09:45:03.004Z,28.10
2022-10-02T09:47:52.366Z,25.70
2022-10-02T09:50:41.629Z,26.20
2022-10-02T09:53:57.727Z,20.50
2022-10-02T09:56:25.591Z,27.90
2022-10-02T09:59:17.423Z,23.30
2022-10-02T10:02:13.013Z,19.80
2022-10-02T10:05:05.095Z,19.00
2022-10-02T10:10:52.123Z,22.10
2022-10-02T10:13:52.179Z,20.30
2022-10-02T10:16:41.654Z,18.90
2022-10-02T10:19:42.070Z,19.00
2022-10-02T10:22:40.326Z,18.40
2022-10-02T10:25:50.489Z,18.80
2022-10-02T10:28:35.653Z,14.40
2022-10-02T10:31:10.503Z,13.50
2022-10-02T10:34:02.826Z,15.70
2022-10-02T10:37:19.846Z,32.10
2022-10-02T10:40:25.712Z,16.70
2022-10-02T10:43:18.561Z,21.70
2022-10-02T10:46:06.469Z,13.50
2022-10-02T10:49:00.673Z,17.00
2022-10-02T10:52:04.068Z,14.90
2022-10-02T10:54:57.478Z,13.90
2022-10-02T10:57:29.720Z,20.50
2022-10-02T11:00:25.431Z,11.20
2022-10-02T11:03:15.108Z,14.10
2022-10-02T11:06:04.780Z,16.00
2022-10-02T11:08:58.659Z,11.90
2022-10-02T11:11:41.900Z,12.50
2022-10-02T11:14:19.818Z,17.30
2022-10-02T11:17:21.343Z,11.50
2022-10-02T11:20:13.786Z,14.30
2022-10-02T11:22:54.762Z,21.10
2022-10-02T11:25:31.704Z,20.40
2022-10-02T11:28:30.269Z,33.90
2022-10-02T11:31:30.384Z,18.20
2022-10-02T11:34:04.254Z,14.60
2022-10-02T11:37:09.912Z,17.60
2022-10-02T11:40:13.102Z,23.80
2022-10-02T11:43:03.093Z,21.70
2022-10-02T11:45:46.392Z,23.10
2022-10-02T11:48:41.198Z,24.20
2022-10-02T11:51:20.955Z,29.50
2022-10-02T11:54:02.048Z,20.40
2022-10-02T11:56:46.330Z,19.20
2022-10-02T11:59:23.608Z,21.70
2022-10-02T12:02:16.662Z,17.90
2022-10-02T12:05:32.117Z,17.20
2022-10-02T12:08:35.225Z,21.30
2022-10-02T12:11:03.283Z,14.50
2022-10-02T12:13:52.766Z,15.00
2022-10-02T12:16:32.369Z,11.00
2022-10-02T12:19:15.216Z,11.90
2022-10-02T12:22:45.453Z,11.40
2022-10-02T12:25:57.721Z,12.10
2022-10-02T12:28:34.767Z,12.80
2022-10-02T12:31:25.324Z,12.70
2022-10-02T12:34:34.376Z,10.10
2022-10-02T12:37:19.649Z,10.30
2022-10-02T12:40:03.231Z,11.80
2022-10-02T12:42:55.081Z,8.70
2022-10-02T12:45:44.243Z,8.50
2022-10-02T12:48:15.228Z,9.10
2022-10-02T12:50:43.797Z,9.80
2022-10-02T12:53:33.389Z,9.20
2022-10-02T12:56:37.294Z,7.70
2022-10-02T12:59:14.022Z,7.60
2022-10-02T13:02:33.232Z,8.10
2022-10-02T13:05:32.232Z,5.60
2022-10-02T13:08:19.038Z,5.90
2022-10-02T13:10:57.594Z,7.50
2022-10-02T13:14:02.327Z,6.50
2022-10-02T13:16:36.085Z,6.40
2022-10-02T13:19:12.067Z,7.60
2022-10-02T13:21:59.100Z,7.90
2022-10-02T13:25:05.982Z,5.30
2022-10-02T13:27:40.283Z,8.00
2022-10-02T13:30:17.029Z,7.80
2022-10-02T13:33:08.501Z,13.40
2022-10-02T13:35:44.516Z,8.20
2022-10-02T13:38:50.237Z,12.70
2022-10-02T13:41:46.923Z,6.30
2022-10-02T13:44:34.239Z,12.30
2022-10-02T13:47:17.670Z,9.50
2022-10-02T13:52:47.502Z,8.60
2022-10-02T13:55:25.955Z,8.40
2022-10-02T13:58:29.835Z,7.50
2022-10-02T14:01:12.916Z,10.80
2022-10-02T14:03:59.601Z,7.70
2022-10-02T14:06:35.824Z,7.60
2022-10-02T14:09:20.510Z,5.80
2022-10-02T14:12:20.714Z,6.20
2022-10-02T14:14:57.071Z,7.30
2022-10-02T14:17:49.015Z,5.20
2022-10-02T14:20:28.379Z,4.80
2022-10-02T14:23:22.116Z,5.00
2022-10-02T14:26:06.355Z,6.70
2022-10-02T14:28:49.491Z,5.10
2022-10-02T14:31:36.560Z,6.40
2022-10-02T14:34:16.670Z,9.50
2022-10-02T14:37:16.843Z,12.00
2022-10-02T14:39:45.893Z,7.20
2022-10-02T14:42:14.183Z,16.20
2022-10-02T14:44:50.747Z,7.60
2022-10-02T14:47:24.541Z,6.30
2022-10-02T14:50:37.271Z,8.30
2022-10-02T14:53:42.915Z,4.80
2022-10-02T14:56:42.022Z,5.50
2022-10-02T14:59:39.671Z,7.70
2022-10-02T15:02:10.619Z,7.00
2022-10-02T15:04:41.718Z,6.50
2022-10-02T15:07:16.593Z,9.20
2022-10-02T15:10:38.381Z,3.70
2022-10-02T15:13:24.438Z,5.90
2022-10-02T15:16:38.983Z,27.70
2022-10-02T15:19:23.798Z,9.30
2022-10-02T15:22:02.674Z,6.40
2022-10-02T15:24:44.454Z,6.10
2022-10-02T15:27:18.268Z,3.90
2022-10-02T15:30:04.485Z,6.10
2022-10-02T15:32:51.982Z,4.60
2022-10-02T15:35:35.839Z,7.30
2022-10-02T15:38:09.762Z,4.70
2022-10-02T15:40:59.727Z,4.50
2022-10-02T15:43:30.458Z,5.80
2022-10-02T15:46:15.937Z,4.00
2022-10-02T15:49:02.998Z,6.20
2022-10-02T15:51:58.054Z,6.00
2022-10-02T15:55:01.462Z,8.40
2022-10-02T15:58:06.093Z,4.40
2022-10-02T16:01:01.463Z,6.00
2022-10-02T16:03:49.340Z,5.80
2022-10-02T16:06:32.047Z,4.10
2022-10-02T16:09:24.214Z,8.30
2022-10-02T16:12:27.386Z,7.70
2022-10-02T16:15:20.043Z,10.40
2022-10-02T16:18:06.054Z,5.10
2022-10-02T16:20:42.286Z,6.10
2022-10-02T16:23:13.122Z,6.80
2022-10-02T16:26:01.034Z,6.30
2022-10-02T16:28:47.464Z,4.70
2022-10-02T16:31:34.289Z,6.90
2022-10-02T16:34:16.782Z,5.40
2022-10-02T16:37:15.913Z,5.50
2022-10-02T16:39:44.245Z,9.70
2022-10-02T16:42:29.644Z,8.40
2022-10-02T16:45:23.966Z,7.90
2022-10-02T16:48:21.188Z,6.80
2022-10-02T16:51:08.744Z,5.80
2022-10-02T16:53:54.909Z,8.50
2022-10-02T16:56:32.528Z,9.00
2022-10-02T16:59:12.753Z,10.90
2022-10-02T17:02:18.655Z,15.50
2022-10-02T17:05:02.047Z,27.60
2022-10-02T17:07:53.069Z,30.90
2022-10-02T17:10:33.622Z,37.60
2022-10-02T17:13:37.629Z,68.40
2022-10-02T17:18:57.970Z,46.30
2022-10-02T17:21:44.741Z,43.20
2022-10-02T17:24:38.429Z,54.30
2022-10-02T17:27:34.362Z,58.50
2022-10-02T17:30:05.184Z,41.40
2022-10-02T17:32:49.133Z,39.30
2022-10-02T17:35:33.084Z,38.90
2022-10-02T17:38:20.769Z,43.70
2022-10-02T17:41:00.875Z,37.10
2022-10-02T17:43:50.752Z,37.90
2022-10-02T17:46:37.797Z,40.60
2022-10-02T17:49:11.869Z,48.50
2022-10-02T17:52:24.082Z,28.60
2022-10-02T17:55:25.131Z,46.40
2022-10-02T17:58:23.910Z,39.60
2022-10-02T18:00:57.959Z,27.30
2022-10-02T18:03:52.223Z,24.90
2022-10-02T18:06:53.677Z,27.20
2022-10-02T18:09:47.216Z,29.70
2022-10-02T18:12:43.991Z,34.80
2022-10-02T18:15:29.858Z,30.80
2022-10-02T18:18:33.922Z,19.20
2022-10-02T18:21:08.221Z,23.70
2022-10-02T18:23:47.448Z,22.80
2022-10-02T18:26:43.576Z,24.10
2022-10-02T18:29:15.221Z,24.80
2022-10-02T18:32:22.162Z,32.70
2022-10-02T18:35:22.437Z,19.50
2022-10-02T18:38:11.523Z,24.10
2022-10-02T18:40:55.649Z,22.20
2022-10-02T18:44:06.831Z,19.10
2022-10-02T18:47:02.677Z,20.90
2022-10-02T18:50:00.809Z,24.60
2022-10-02T18:53:00.435Z,18.70
2022-10-02T18:56:03.271Z,20.30
2022-10-02T18:58:53.539Z,14.50
2022-10-02T19:01:24.387Z,18.00
2022-10-02T19:03:58.436Z,17.90
2022-10-02T19:06:35.045Z,20.20
2022-10-02T19:09:08.819Z,18.60
2022-10-02T19:11:48.993Z,16.30
2022-10-02T19:14:26.470Z,20.80
2022-10-02T19:17:14.405Z,20.00
2022-10-02T19:19:43.690Z,15.30
2022-10-02T19:22:26.132Z,18.60
2022-10-02T19:24:57.382Z,15.30
2022-10-02T19:27:32.226Z,16.00
2022-10-02T19:30:21.485Z,13.70
2022-10-02T19:32:51.858Z,19.30
2022-10-02T19:35:30.951Z,15.70
2022-10-02T19:38:34.747Z,15.50
2022-10-02T19:41:23.715Z,14.70
2022-10-02T19:44:01.470Z,14.90
2022-10-02T19:46:38.117Z,13.70
2022-10-02T19:49:13.115Z,15.90
2022-10-02T19:51:46.618Z,17.90
2022-10-02T19:54:34.554Z,15.90
2022-10-02T19:57:18.296Z,11.50
2022-10-02T19:59:52.400Z,14.70
2022-10-02T20:02:32.785Z,15.10
2022-10-02T20:05:04.320Z,12.10
2022-10-02T20:07:37.409Z,13.40
2022-10-02T20:10:15.313Z,13.10
2022-10-02T20:13:16.984Z,15.50
2022-10-02T20:16:12.828Z,11.70
2022-10-02T20:18:41.070Z,12.70
2022-10-02T20:21:23.787Z,13.50
2022-10-02T20:23:57.521Z,12.60
2022-10-02T20:26:35.705Z,12.80
2022-10-02T20:29:12.028Z,11.30
2022-10-02T20:31:48.142Z,13.30
2022-10-02T20:34:43.631Z,11.60
2022-10-02T20:37:25.326Z,14.50
2022-10-02T20:40:02.123Z,11.30
2022-10-02T20:42:43.292Z,11.80
2022-10-02T20:45:13.131Z,12.60
2022-10-02T20:47:56.375Z,14.00
2022-10-02T20:50:43.236Z,29.40
2022-10-02T20:53:48.895Z,16.70
2022-10-02T20:56:41.135Z,22.80
2022-10-02T20:59:28.354Z,20.20
2022-10-02T21:02:21.042Z,18.10
2022-10-02T21:04:56.130Z,19.80
2022-10-02T21:07:59.173Z,15.00
2022-10-02T21:10:54.880Z,13.20
2022-10-02T21:13:44.731Z,16.60
2022-10-02T21:16:53.906Z,14.40
2022-10-02T21:19:56.162Z,15.00
2022-10-02T21:22:48.987Z,16.20
2022-10-02T21:25:38.262Z,15.40
2022-10-02T21:28:24.469Z,13.80
2022-10-02T21:31:04.676Z,12.80
2022-10-02T21:33:42.101Z,10.20
2022-10-02T21:36:31.592Z,12.10
2022-10-02T21:39:27.016Z,10.70
2022-10-02T21:42:22.707Z,16.90
2022-10-02T21:45:15.462Z,12.90
2022-10-02T21:48:04.733Z,12.00
2022-10-02T21:51:17.134Z,8.70
2022-10-02T21:54:05.075Z,8.70
2022-10-02T21:56:36.119Z,10.10
2022-10-02T21:59:04.291Z,10.40
2022-10-02T22:02:03.814Z,8.70
2022-10-02T22:04:53.190Z,9.60
2022-10-02T22:07:32.606Z,10.50
2022-10-02T22:10:18.556Z,8.80
2022-10-02T22:12:57.532Z,12.70
2022-10-02T22:15:45.528Z,9.10
2022-10-02T22:18:40.473Z,9.70
2022-10-02T22:21:35.742Z,10.80
2022-10-02T22:24:33.261Z,11.20
2022-10-02T22:27:22.409Z,10.20
2022-10-02T22:29:51.398Z,12.60
2022-10-02T22:33:11.798Z,9.40
2022-10-02T22:36:04.167Z,9.00
2022-10-02T22:38:35.741Z,10.40
2022-10-02T22:41:19.737Z,9.50
2022-10-02T22:43:53.921Z,10.40
2022-10-02T22:46:31.509Z,9.80
2022-10-02T22:48:59.437Z,10.80
2022-10-02T22:52:10.909Z,8.90
2022-10-02T22:54:47.382Z,9.40
2022-10-02T22:57:21.093Z,9.00
2022-10-02T22:59:59.502Z,8.60
2022-10-02T23:02:31.647Z,8.80
2022-10-02T23:05:05.787Z,7.70
2022-10-02T23:07:45.399Z,10.20
2022-10-02T23:10:28.848Z,8.80
2022-10-02T23:13:26.721Z,10.00
2022-10-02T23:15:58.814Z,8.90
2022-10-02T23:19:14.887Z,8.80
2022-10-02T23:22:01.387Z,10.80
2022-10-02T23:24:38.779Z,8.50
2022-10-02T23:27:10.642Z,9.30
2022-10-02T23:30:05.271Z,8.20
2022-10-02T23:32:48.219Z,7.10
2022-10-02T23:35:39.266Z,9.20
2022-10-02T23:38:24.029Z,8.10
2022-10-02T23:41:36.839Z,9.10
2022-10-02T23:44:33.190Z,7.90
2022-10-02T23:47:11.593Z,8.50
2022-10-02T23:49:45.527Z,8.10
2022-10-02T23:52:53.922Z,9.20
2022-10-02T23:55:45.339Z,7.80
2022-10-02T23:58:24.680Z,7.60
